LZKZ/KSC METAR and TAF weather

Enter ICAO airport designator
Station Type Date Time Source
LZKZ METAR 2019/02/21 16:00 UTC NOAA

LZKZ 211600Z 20005KT CAVOK 08/M01 Q1022 NOSIG


Station Type Date Time Source
LZKZ Decoded METAR 2019/02/21 16:00 UTC NOAA

Kosice, Barca, Slovakia (LZKZ) 48-39-47N 021-14-28E
Feb 21, 2019 - 11:00 AM EST / 2019.02.21 1600 UTC
Wind: from the SSW (200 degrees) at 6 MPH (5 KT):0
Visibility: greater than 7 mile(s):0
Temperature: 46 F (8 C)
Dew Point: 30 F (-1 C)
Relative Humidity: 52%
Pressure (altimeter): 30.18 in. Hg (1022 hPa)
ob: LZKZ 211600Z 20005KT CAVOK 08/M01 Q1022 NOSIG
cycle: 16

Station Type Date Time Source
LZKZ TAF 2019/02/21 12:00 UTC NOAA

TAF LZKZ 211100Z 2112/2212 VRB02KT CAVOK
BECMG 2118/2120 36006KT 9999 -RA SCT027 BKN060 PROB40
TEMPO 2200/2206 7000 -FZRA


Example: see airport list